Time;durP1;ratioP1;P1;durP2;ratioP2;P2;SDS_P1;SDS_P2;PMS_P1;PMS_P2;Temp;Humidity;BMP_temperature;BMP_pressure;BME280_temperature;BME280_humidity;BME280_pressure;Samples;Min_cycle;Max_cycle;Signal;HPM_P1;HPM_P2
2021/12/03 00:00:50;;;;;;;6.43;4.30;;;2.10;99.90;;;;;;5013966;28;20436;-69
2021/12/03 00:03:15;;;;;;;6.80;4.13;;;2.00;99.90;;;;;;5014407;28;20430;-68
2021/12/03 00:05:41;;;;;;;8.83;6.10;;;2.00;99.90;;;;;;5009168;28;20481;-68
2021/12/03 00:08:08;;;;;;;4.10;3.70;;;1.90;99.90;;;;;;5020183;28;20193;-68
2021/12/03 00:10:35;;;;;;;5.63;4.33;;;1.80;99.90;;;;;;5014624;28;20251;-67
2021/12/03 00:13:01;;;;;;;5.67;4.20;;;1.70;99.90;;;;;;5009163;28;20464;-69
2021/12/03 00:15:29;;;;;;;7.37;4.50;;;1.60;99.90;;;;;;5012623;28;20430;-69
2021/12/03 00:17:55;;;;;;;7.33;3.80;;;1.50;99.90;;;;;;5014764;28;20481;-69
2021/12/03 00:20:22;;;;;;;4.60;3.40;;;1.50;99.90;;;;;;5005812;28;20438;-69
2021/12/03 00:22:51;;;;;;;6.97;4.50;;;1.40;99.90;;;;;;5002787;28;20183;-69
2021/12/03 00:25:17;;;;;;;6.70;4.70;;;1.40;99.90;;;;;;5018366;28;20806;-68
2021/12/03 00:27:43;;;;;;;5.53;4.10;;;1.30;99.90;;;;;;5013878;28;20867;-69
2021/12/03 00:30:11;;;;;;;6.50;4.60;;;1.30;99.90;;;;;;5004948;28;20505;-70
2021/12/03 00:32:36;;;;;;;7.47;5.30;;;1.30;99.90;;;;;;5004803;28;20441;-70
2021/12/03 00:35:04;;;;;;;10.93;6.13;;;1.20;99.90;;;;;;5001777;28;20438;-69
2021/12/03 00:37:29;;;;;;;5.30;4.80;;;1.20;99.90;;;;;;5007480;28;20233;-68
2021/12/03 00:39:55;;;;;;;7.80;4.70;;;1.20;99.90;;;;;;5002340;28;21121;-69
2021/12/03 00:42:21;;;;;;;7.20;4.57;;;1.10;99.90;;;;;;4997794;28;20751;-70
2021/12/03 00:44:51;;;;;;;7.87;4.73;;;1.10;99.90;;;;;;5014807;28;20520;-69
2021/12/03 00:47:17;;;;;;;6.17;4.40;;;1.20;99.90;;;;;;5003628;28;20856;-69
2021/12/03 00:49:43;;;;;;;6.33;5.70;;;1.20;99.90;;;;;;5005538;28;20445;-69
2021/12/03 00:52:09;;;;;;;7.50;5.20;;;1.20;99.90;;;;;;5003123;28;20436;-67
2021/12/03 00:54:35;;;;;;;6.13;5.53;;;1.20;99.90;;;;;;5012150;28;20175;-70
2021/12/03 00:57:00;;;;;;;9.47;5.50;;;1.20;99.90;;;;;;5004986;28;20219;-69
2021/12/03 00:59:26;;;;;;;6.67;5.43;;;1.30;99.90;;;;;;4995912;28;20967;-70
2021/12/03 01:01:52;;;;;;;8.60;7.20;;;1.30;99.90;;;;;;4999154;28;20927;-70
2021/12/03 01:04:18;;;;;;;11.53;5.60;;;1.30;99.90;;;;;;5001465;28;20230;-70
2021/12/03 01:06:43;;;;;;;10.13;6.53;;;1.20;99.90;;;;;;4996178;28;20218;-70
2021/12/03 01:09:09;;;;;;;11.23;5.23;;;1.30;99.90;;;;;;5000342;28;20434;-69
2021/12/03 01:11:34;;;;;;;7.10;5.37;;;1.40;99.90;;;;;;5001652;28;20188;-69
2021/12/03 01:14:00;;;;;;;13.43;5.30;;;1.40;99.90;;;;;;4996825;28;20190;-69
2021/12/03 01:16:28;;;;;;;5.37;4.83;;;1.50;99.90;;;;;;4994463;28;20203;-69
2021/12/03 01:18:54;;;;;;;6.20;5.60;;;1.50;99.90;;;;;;5003158;28;20558;-70
2021/12/03 01:21:20;;;;;;;8.67;6.20;;;1.50;99.90;;;;;;5005393;28;20462;-64
2021/12/03 01:23:47;;;;;;;9.27;6.93;;;1.50;99.90;;;;;;5009697;28;20439;-69
2021/12/03 01:26:13;;;;;;;7.50;6.10;;;1.50;99.90;;;;;;5013481;28;20458;-70
2021/12/03 01:28:39;;;;;;;7.53;5.13;;;1.50;99.90;;;;;;5004211;28;20438;-70
2021/12/03 01:31:05;;;;;;;8.70;6.50;;;1.50;99.90;;;;;;5003864;28;20944;-70
2021/12/03 01:33:31;;;;;;;8.40;5.70;;;1.50;99.90;;;;;;5018375;28;20445;-70
2021/12/03 01:35:57;;;;;;;6.63;5.80;;;1.60;99.90;;;;;;5019708;28;20985;-70
2021/12/03 01:38:22;;;;;;;8.30;6.33;;;1.60;99.90;;;;;;5014617;28;20738;-68
2021/12/03 01:40:48;;;;;;;6.93;6.23;;;1.60;99.90;;;;;;5013277;28;20529;-69
2021/12/03 01:43:22;;;;;;;7.33;5.60;;;1.60;99.90;;;;;;5011458;28;20187;-70
2021/12/03 01:45:52;;;;;;;12.43;6.03;;;1.60;99.90;;;;;;5000720;28;20580;-70
2021/12/03 01:48:18;;;;;;;7.40;5.27;;;1.60;99.90;;;;;;5010714;28;20876;-69
2021/12/03 01:50:45;;;;;;;7.20;5.43;;;1.50;99.90;;;;;;5013051;28;20441;-69
2021/12/03 01:53:13;;;;;;;7.63;6.57;;;1.50;99.90;;;;;;5013615;28;20179;-70
2021/12/03 01:55:42;;;;;;;10.00;6.80;;;1.50;99.90;;;;;;4999261;28;20470;-70
2021/12/03 01:58:07;;;;;;;9.10;5.83;;;1.50;99.90;;;;;;5013555;28;20893;-70
2021/12/03 02:00:43;;;;;;;8.63;6.50;;;1.40;99.90;;;;;;5013431;28;20456;-69
2021/12/03 02:03:11;;;;;;;7.67;6.00;;;1.30;99.90;;;;;;5012975;28;20171;-69
2021/12/03 02:05:37;;;;;;;7.30;6.30;;;1.20;99.90;;;;;;5008928;28;20462;-67
2021/12/03 02:08:04;;;;;;;10.03;7.27;;;1.10;99.90;;;;;;5011329;28;20750;-69
2021/12/03 02:10:30;;;;;;;9.70;7.93;;;1.10;99.90;;;;;;5010716;28;20441;-69
2021/12/03 02:12:56;;;;;;;9.40;6.83;;;1.10;99.90;;;;;;5018610;28;20442;-68
2021/12/03 02:15:22;;;;;;;9.27;7.03;;;1.10;99.90;;;;;;5007207;28;20933;-70
2021/12/03 02:17:49;;;;;;;9.70;8.40;;;1.20;99.90;;;;;;5004476;28;20195;-69
2021/12/03 02:20:17;;;;;;;9.97;7.53;;;1.20;99.90;;;;;;5011125;28;20447;-69
2021/12/03 02:22:43;;;;;;;10.13;7.10;;;1.30;99.90;;;;;;5008078;28;20858;-69
2021/12/03 02:25:13;;;;;;;9.07;6.40;;;1.30;99.90;;;;;;5003342;28;20513;-69
2021/12/03 02:27:38;;;;;;;10.23;7.80;;;1.20;99.90;;;;;;5011631;28;20294;-68
2021/12/03 02:30:06;;;;;;;11.30;7.70;;;1.10;99.90;;;;;;5002996;28;20697;-70
2021/12/03 02:32:32;;;;;;;10.93;6.90;;;1.10;99.90;;;;;;5011521;28;20226;-70
2021/12/03 02:34:58;;;;;;;10.07;7.00;;;1.00;99.90;;;;;;5005447;28;20439;-70
2021/12/03 02:37:23;;;;;;;10.10;7.20;;;0.90;99.90;;;;;;5006650;28;20206;-70
2021/12/03 02:39:49;;;;;;;8.43;6.47;;;0.90;99.90;;;;;;5002924;28;20532;-69
2021/12/03 02:42:15;;;;;;;9.70;8.63;;;0.90;99.90;;;;;;4995558;28;20186;-69
2021/12/03 02:44:41;;;;;;;11.00;7.90;;;0.80;99.90;;;;;;4987414;28;20834;-68
2021/12/03 02:47:07;;;;;;;9.90;6.37;;;0.80;99.90;;;;;;5002047;28;20450;-70
2021/12/03 02:49:38;;;;;;;9.73;6.93;;;0.80;99.90;;;;;;4997142;28;20438;-69
2021/12/03 02:52:04;;;;;;;10.73;7.00;;;0.70;99.90;;;;;;5006892;28;20203;-68
2021/12/03 02:54:30;;;;;;;9.20;7.57;;;0.80;99.90;;;;;;4987411;28;20443;-69
2021/12/03 02:56:55;;;;;;;12.70;8.60;;;0.80;99.90;;;;;;5002422;28;20450;-70
2021/12/03 02:59:21;;;;;;;12.47;8.07;;;0.80;99.90;;;;;;5006252;28;20242;-70
2021/12/03 03:01:46;;;;;;;9.33;7.80;;;0.80;99.90;;;;;;5004321;28;20187;-70
2021/12/03 03:04:12;;;;;;;9.53;7.30;;;0.90;99.90;;;;;;4997713;28;20184;-69
2021/12/03 03:06:37;;;;;;;11.33;7.93;;;0.80;99.90;;;;;;5006517;28;20282;-70
2021/12/03 03:09:07;;;;;;;10.73;8.43;;;0.90;99.90;;;;;;5010614;28;20184;-70
2021/12/03 03:11:34;;;;;;;7.37;6.03;;;1.00;99.90;;;;;;5009405;28;20187;-70
2021/12/03 03:13:59;;;;;;;7.43;6.40;;;1.00;99.90;;;;;;5010490;28;20457;-70
2021/12/03 03:16:26;;;;;;;10.20;8.30;;;1.00;99.90;;;;;;5004391;28;20461;-69
2021/12/03 03:18:51;;;;;;;11.47;8.23;;;1.10;99.90;;;;;;5016689;28;20213;-69
2021/12/03 03:21:17;;;;;;;8.80;7.73;;;1.10;99.90;;;;;;5009040;28;20435;-68
2021/12/03 03:23:43;;;;;;;9.77;8.53;;;1.20;99.90;;;;;;5003100;28;20325;-70
2021/12/03 03:26:09;;;;;;;9.87;8.00;;;1.20;99.90;;;;;;4995907;28;20533;-70
2021/12/03 03:28:36;;;;;;;11.13;8.10;;;1.20;99.90;;;;;;5011391;28;20437;-70
2021/12/03 03:31:02;;;;;;;11.70;8.80;;;1.20;99.90;;;;;;4998298;28;20454;-70
2021/12/03 03:33:28;;;;;;;13.53;8.80;;;1.30;99.90;;;;;;5006319;28;20503;-70
2021/12/03 03:35:54;;;;;;;10.67;8.73;;;1.30;99.90;;;;;;4996769;28;20462;-70
2021/12/03 03:38:20;;;;;;;10.27;8.63;;;1.40;99.90;;;;;;5003480;28;20983;-70
2021/12/03 03:40:46;;;;;;;8.67;7.20;;;1.50;99.90;;;;;;4999571;28;20187;-70
2021/12/03 03:43:12;;;;;;;11.97;8.57;;;1.50;99.90;;;;;;5010389;28;20431;-70
2021/12/03 03:45:40;;;;;;;9.63;7.67;;;1.60;99.90;;;;;;4995203;28;20454;-70
2021/12/03 03:48:06;;;;;;;8.77;7.87;;;1.60;99.90;;;;;;5003447;28;20492;-68
2021/12/03 03:50:32;;;;;;;12.93;9.67;;;1.70;99.90;;;;;;5005677;28;20461;-68
2021/12/03 03:52:58;;;;;;;11.80;8.60;;;1.70;99.90;;;;;;5002204;28;20493;-70
2021/12/03 03:55:25;;;;;;;9.87;8.27;;;1.70;99.90;;;;;;4995399;28;20439;-69
2021/12/03 03:57:54;;;;;;;11.73;9.47;;;1.80;99.90;;;;;;4995180;28;20210;-69
2021/12/03 04:00:23;;;;;;;9.67;8.17;;;1.70;99.90;;;;;;4995424;28;20442;-70
2021/12/03 04:02:49;;;;;;;10.80;8.83;;;1.60;99.90;;;;;;4997091;28;20463;-70
2021/12/03 04:05:15;;;;;;;12.87;10.27;;;1.60;99.90;;;;;;4997899;28;20450;-69
2021/12/03 04:07:41;;;;;;;12.07;8.93;;;1.60;99.90;;;;;;4997470;28;20533;-70
2021/12/03 04:10:08;;;;;;;11.70;9.10;;;1.60;99.90;;;;;;4999872;28;20438;-68
2021/12/03 04:12:34;;;;;;;15.87;9.80;;;1.60;99.90;;;;;;4992419;28;20516;-70
2021/12/03 04:15:00;;;;;;;15.43;9.97;;;1.50;99.90;;;;;;4996015;28;20434;-70
2021/12/03 04:17:27;;;;;;;14.47;10.17;;;1.50;99.90;;;;;;4997495;28;20470;-70
2021/12/03 04:19:53;;;;;;;10.43;8.00;;;1.60;99.90;;;;;;4998456;28;20453;-69
2021/12/03 04:22:23;;;;;;;9.97;8.13;;;1.70;99.90;;;;;;5003187;28;20450;-69
2021/12/03 04:24:50;;;;;;;10.30;8.60;;;1.70;99.90;;;;;;5003252;28;20438;-70
2021/12/03 04:27:16;;;;;;;13.27;9.77;;;1.70;99.90;;;;;;5007093;28;20849;-70
2021/12/03 04:29:42;;;;;;;10.50;9.40;;;1.70;99.90;;;;;;4999262;28;20446;-70
2021/12/03 04:32:08;;;;;;;10.60;9.50;;;1.80;99.90;;;;;;5006011;28;20786;-69
2021/12/03 04:34:34;;;;;;;14.60;10.20;;;1.80;99.90;;;;;;5000561;28;20175;-70
2021/12/03 04:36:59;;;;;;;12.17;9.20;;;1.90;99.90;;;;;;5015881;28;20203;-69
2021/12/03 04:39:25;;;;;;;13.00;9.53;;;2.00;99.90;;;;;;5001707;28;21021;-70
2021/12/03 04:41:50;;;;;;;8.33;7.50;;;2.00;99.90;;;;;;5002865;28;20178;-70
2021/12/03 04:44:16;;;;;;;11.30;9.10;;;2.10;99.90;;;;;;4998556;28;20579;-68
2021/12/03 04:46:41;;;;;;;10.67;9.57;;;2.10;99.90;;;;;;4996923;28;20202;-70
2021/12/03 04:49:07;;;;;;;11.40;9.43;;;2.00;99.90;;;;;;4996907;28;20537;-69
2021/12/03 04:51:33;;;;;;;11.07;8.90;;;2.00;99.90;;;;;;4998975;28;20180;-69
2021/12/03 04:53:58;;;;;;;10.53;8.90;;;2.10;99.90;;;;;;5000216;28;20641;-70
2021/12/03 04:56:24;;;;;;;11.90;9.13;;;2.10;99.90;;;;;;5006795;28;20200;-70
2021/12/03 04:58:49;;;;;;;8.67;7.63;;;2.00;99.90;;;;;;5002256;28;20203;-69
2021/12/03 05:01:15;;;;;;;15.03;10.20;;;2.10;99.90;;;;;;5001826;28;20186;-70
2021/12/03 05:03:41;;;;;;;10.63;9.47;;;2.10;99.90;;;;;;5006904;28;20179;-70
2021/12/03 05:06:09;;;;;;;10.00;8.37;;;2.00;99.90;;;;;;5001983;28;20199;-70
2021/12/03 05:08:35;;;;;;;11.30;9.07;;;2.10;99.90;;;;;;5002030;28;20550;-71
2021/12/03 05:11:01;;;;;;;9.60;8.60;;;2.10;99.90;;;;;;4996522;28;20478;-71
2021/12/03 05:13:32;;;;;;;10.27;8.10;;;2.00;99.90;;;;;;5000945;28;20671;-70
2021/12/03 05:15:58;;;;;;;9.17;8.17;;;2.00;99.90;;;;;;4998388;28;20654;-70
2021/12/03 05:18:26;;;;;;;11.73;8.70;;;2.00;99.90;;;;;;5000972;28;20465;-70
2021/12/03 05:20:53;;;;;;;9.33;7.90;;;2.00;99.90;;;;;;4999300;28;20437;-70
2021/12/03 05:23:21;;;;;;;16.00;9.20;;;2.00;99.90;;;;;;5011306;28;20457;-70
2021/12/03 05:25:47;;;;;;;10.07;9.00;;;1.90;99.90;;;;;;5008043;28;20473;-69
2021/12/03 05:28:15;;;;;;;12.43;8.77;;;1.80;99.90;;;;;;4998603;28;20461;-70
2021/12/03 05:30:43;;;;;;;9.70;8.70;;;1.80;99.90;;;;;;4996510;28;20910;-70
2021/12/03 05:33:09;;;;;;;9.70;7.63;;;1.90;99.90;;;;;;4998327;28;20442;-70
2021/12/03 05:35:35;;;;;;;10.03;9.03;;;1.90;99.90;;;;;;5010520;28;20442;-70
2021/12/03 05:38:01;;;;;;;11.17;8.63;;;1.90;99.90;;;;;;5005571;28;20462;-69
2021/12/03 05:40:27;;;;;;;12.20;8.47;;;1.90;99.90;;;;;;5006208;28;20437;-69
2021/12/03 05:42:53;;;;;;;9.40;8.33;;;1.90;99.90;;;;;;5013245;28;20457;-71
2021/12/03 05:45:31;;;;;;;9.80;8.10;;;1.90;99.90;;;;;;5003433;28;20183;-70
2021/12/03 05:47:57;;;;;;;8.80;7.50;;;1.90;99.90;;;;;;4999856;28;20446;-70
2021/12/03 05:50:23;;;;;;;10.87;9.33;;;2.00;99.90;;;;;;5009864;28;20445;-70
2021/12/03 05:52:50;;;;;;;9.80;8.40;;;1.90;99.90;;;;;;4997443;28;20439;-70
2021/12/03 05:55:17;;;;;;;9.63;8.03;;;1.90;99.90;;;;;;5009203;28;20233;-68
2021/12/03 05:57:43;;;;;;;12.03;9.73;;;1.90;99.90;;;;;;5004632;28;20501;-70
2021/12/03 06:00:13;;;;;;;10.17;8.57;;;2.00;99.90;;;;;;4998649;28;20439;-70
2021/12/03 06:02:39;;;;;;;8.37;7.47;;;2.00;99.90;;;;;;5004972;28;20435;-68
2021/12/03 06:05:05;;;;;;;13.20;8.40;;;2.10;99.90;;;;;;5006276;28;20572;-70
2021/12/03 06:07:31;;;;;;;10.27;7.80;;;2.00;99.90;;;;;;4997778;28;20196;-69
2021/12/03 06:09:57;;;;;;;9.17;8.17;;;2.00;99.90;;;;;;5003263;28;20940;-70
2021/12/03 06:12:22;;;;;;;10.43;9.33;;;2.00;99.90;;;;;;5007251;28;20186;-70
2021/12/03 06:14:48;;;;;;;9.53;8.00;;;1.90;99.90;;;;;;4998528;28;20187;-70
2021/12/03 06:17:14;;;;;;;9.83;8.63;;;1.90;99.90;;;;;;5006826;28;20196;-70
2021/12/03 06:19:40;;;;;;;10.60;8.30;;;1.90;99.90;;;;;;4997068;28;20237;-68
2021/12/03 06:22:06;;;;;;;9.83;8.77;;;1.90;99.90;;;;;;4997694;28;20864;-70
2021/12/03 06:24:32;;;;;;;11.13;9.90;;;1.90;99.90;;;;;;5006058;28;20225;-70
2021/12/03 06:26:57;;;;;;;10.77;9.23;;;1.90;99.90;;;;;;4996319;28;20474;-70
2021/12/03 06:29:23;;;;;;;13.10;10.20;;;2.00;99.90;;;;;;5003571;28;20183;-70
2021/12/03 06:31:49;;;;;;;11.97;8.70;;;2.00;99.90;;;;;;5008674;28;20183;-71
2021/12/03 06:34:15;;;;;;;9.70;8.17;;;2.00;99.90;;;;;;4996729;28;20211;-71
2021/12/03 06:36:40;;;;;;;22.80;14.83;;;1.90;99.90;;;;;;4998898;28;20203;-71
2021/12/03 06:39:06;;;;;;;16.70;13.23;;;1.80;99.90;;;;;;5004878;28;20223;-70
2021/12/03 06:41:31;;;;;;;12.30;9.27;;;1.70;99.90;;;;;;5008904;28;20230;-71
2021/12/03 06:43:57;;;;;;;10.80;8.77;;;1.50;99.90;;;;;;4997556;28;20266;-71
2021/12/03 06:46:23;;;;;;;12.47;9.77;;;1.40;99.90;;;;;;5005208;28;20544;-70
2021/12/03 06:48:48;;;;;;;9.97;8.90;;;1.30;99.90;;;;;;5001034;28;20735;-69
2021/12/03 06:51:14;;;;;;;11.83;8.87;;;1.30;99.90;;;;;;4996744;28;20243;-71
2021/12/03 06:53:43;;;;;;;11.33;8.60;;;1.30;99.90;;;;;;5000537;28;20187;-71
2021/12/03 06:56:19;;;;;;;11.37;8.13;;;1.20;99.90;;;;;;5003389;28;20200;-71
2021/12/03 06:58:44;;;;;;;12.50;9.07;;;1.10;99.90;;;;;;5003481;28;20472;-71
2021/12/03 07:01:10;;;;;;;10.00;7.80;;;1.10;99.90;;;;;;5007791;28;20430;-71
2021/12/03 07:03:35;;;;;;;10.80;9.50;;;1.10;99.90;;;;;;5003640;28;20226;-71
2021/12/03 07:06:01;;;;;;;12.00;7.40;;;1.00;99.90;;;;;;4994055;28;20249;-71
2021/12/03 07:08:26;;;;;;;9.43;7.80;;;1.10;99.90;;;;;;5008998;28;20192;-70
2021/12/03 07:10:52;;;;;;;11.50;8.60;;;1.00;99.90;;;;;;4996172;28;20188;-71
2021/12/03 07:13:17;;;;;;;10.80;8.30;;;1.00;99.90;;;;;;5005628;28;20198;-71
2021/12/03 07:15:43;;;;;;;9.67;8.20;;;0.90;99.90;;;;;;4995563;28;20207;-71
2021/12/03 07:18:09;;;;;;;10.53;8.53;;;0.90;99.90;;;;;;5009557;28;20234;-69
2021/12/03 07:20:34;;;;;;;12.20;8.00;;;0.90;99.90;;;;;;5003013;28;20434;-71
2021/12/03 07:23:00;;;;;;;11.33;7.70;;;0.80;99.90;;;;;;5004283;28;20174;-70
2021/12/03 07:25:26;;;;;;;10.70;9.40;;;0.90;99.90;;;;;;4998434;28;20206;-70
2021/12/03 07:27:52;;;;;;;12.30;9.80;;;0.90;99.90;;;;;;5004731;28;20183;-71
2021/12/03 07:30:19;;;;;;;10.40;8.43;;;1.00;99.90;;;;;;4997547;28;20430;-71
2021/12/03 07:32:45;;;;;;;11.00;8.50;;;1.10;99.90;;;;;;4980675;28;20615;-71
2021/12/03 07:35:12;;;;;;;14.00;8.00;;;1.10;99.90;;;;;;4989956;28;20450;-70
2021/12/03 07:37:37;;;;;;;10.90;9.13;;;1.30;99.90;;;;;;4998665;28;20481;-71
2021/12/03 07:40:05;;;;;;;11.33;7.90;;;1.50;99.90;;;;;;4961988;28;20442;-69
2021/12/03 07:42:35;;;;;;;12.63;8.70;;;2.20;99.90;;;;;;4978526;28;20664;-71
2021/12/03 07:45:05;;;;;;;8.93;8.00;;;3.20;99.90;;;;;;4995119;28;20431;-68
2021/12/03 07:47:30;;;;;;;9.27;7.93;;;4.10;99.90;;;;;;4989287;28;20522;-75
2021/12/03 07:49:56;;;;;;;7.63;6.90;;;4.20;99.90;;;;;;4989519;28;20471;-75
2021/12/03 07:52:21;;;;;;;11.33;7.60;;;4.30;99.90;;;;;;4993603;28;20665;-72
2021/12/03 07:54:48;;;;;;;10.90;7.40;;;4.20;99.90;;;;;;5003367;28;20539;-71
2021/12/03 07:57:14;;;;;;;7.23;6.53;;;4.40;99.90;;;;;;4992022;28;20258;-71
2021/12/03 07:59:40;;;;;;;7.70;6.90;;;5.20;99.90;;;;;;4988413;28;20474;-70
2021/12/03 08:02:05;;;;;;;6.93;5.80;;;6.10;99.90;;;;;;4995101;28;20432;-72
2021/12/03 08:04:31;;;;;;;8.07;7.23;;;7.10;99.90;;;;;;4993687;28;20629;-71
2021/12/03 08:06:56;;;;;;;9.97;8.97;;;8.00;99.90;;;;;;4993506;28;20268;-70
2021/12/03 08:09:23;;;;;;;10.17;8.33;;;8.90;99.90;;;;;;4989421;28;20656;-72
2021/12/03 08:11:49;;;;;;;11.03;10.03;;;9.60;99.90;;;;;;4994836;28;20238;-71
2021/12/03 08:14:14;;;;;;;10.20;9.30;;;10.30;99.90;;;;;;5005229;28;20434;-72
2021/12/03 08:16:40;;;;;;;9.20;8.27;;;10.50;99.90;;;;;;4994621;28;20458;-72
2021/12/03 08:19:06;;;;;;;9.97;9.03;;;9.90;99.90;;;;;;4989560;28;20207;-72
2021/12/03 08:21:32;;;;;;;11.50;10.47;;;9.30;99.90;;;;;;4999847;28;20175;-71
2021/12/03 08:24:01;;;;;;;26.60;19.60;;;8.70;99.90;;;;;;4992275;28;20970;-72
2021/12/03 08:26:28;;;;;;;11.50;10.30;;;8.30;99.90;;;;;;5000038;28;20864;-71
2021/12/03 08:28:54;;;;;;;9.20;8.20;;;8.20;99.90;;;;;;5000231;28;20445;-71
2021/12/03 08:31:20;;;;;;;9.07;6.43;;;7.90;99.90;;;;;;5003291;28;20813;-72
2021/12/03 08:33:46;;;;;;;7.77;7.03;;;8.10;99.90;;;;;;4999447;28;20669;-72
2021/12/03 08:36:13;;;;;;;6.93;6.23;;;8.20;99.90;;;;;;5002579;28;20461;-72
2021/12/03 08:38:39;;;;;;;10.40;8.70;;;8.00;99.90;;;;;;4991796;28;20214;-72
2021/12/03 08:41:05;;;;;;;9.00;8.10;;;8.60;99.90;;;;;;5005083;28;20509;-72
2021/12/03 08:43:31;;;;;;;9.00;8.30;;;9.60;99.90;;;;;;5004701;28;20433;-71
2021/12/03 08:45:57;;;;;;;9.30;8.40;;;10.60;99.90;;;;;;5005896;28;20536;-70
2021/12/03 08:48:24;;;;;;;7.00;6.40;;;11.50;99.90;;;;;;4996731;28;20581;-72
2021/12/03 08:51:09;;;;;;;11.27;10.10;;;12.20;99.90;;;;;;5007377;28;20186;-72
2021/12/03 08:56:19;;;;;;;4.07;3.77;;;13.30;98.20;;;;;;4987857;28;20820;-72
2021/12/03 08:58:44;;;;;;;7.10;4.27;;;13.50;96.40;;;;;;5006600;28;20462;-71
2021/12/03 09:01:12;;;;;;;4.10;3.80;;;13.50;92.80;;;;;;4998931;28;20482;-72
2021/12/03 09:03:38;;;;;;;3.90;3.50;;;12.60;92.60;;;;;;5001777;28;20199;-70
2021/12/03 09:06:04;;;;;;;4.33;3.93;;;12.20;92.70;;;;;;5002386;28;20458;-75
2021/12/03 09:08:29;;;;;;;4.67;4.27;;;11.90;95.30;;;;;;5005091;28;20214;-72
2021/12/03 09:10:55;;;;;;;4.10;3.70;;;10.00;94.80;;;;;;4997439;28;20588;-72
2021/12/03 09:13:20;;;;;;;4.20;3.90;;;11.00;96.20;;;;;;5007480;28;20275;-72
2021/12/03 09:15:53;;;;;;;2.80;2.60;;;11.90;93.50;;;;;;5002888;28;20241;-72
2021/12/03 09:18:34;;;;;;;6.17;5.50;;;11.40;92.50;;;;;;4991201;28;20672;-71
2021/12/03 09:21:05;;;;;;;4.00;3.70;;;12.10;92.70;;;;;;4994817;28;20453;-73
2021/12/03 09:26:08;;;;;;;5.20;4.77;;;12.60;90.30;;;;;;4990886;28;20791;-70
2021/12/03 09:28:35;;;;;;;3.80;3.50;;;12.70;91.10;;;;;;4992600;28;20533;-72
2021/12/03 09:31:02;;;;;;;3.80;3.40;;;13.00;87.10;;;;;;4994269;28;20445;-70
2021/12/03 09:33:29;;;;;;;3.67;3.37;;;11.80;90.20;;;;;;4996010;28;20569;-72
2021/12/03 09:35:59;;;;;;;3.17;2.90;;;12.80;90.70;;;;;;4995996;28;20613;-70
2021/12/03 09:38:27;;;;;;;3.60;2.73;;;13.20;87.40;;;;;;4996609;28;20927;-72
2021/12/03 09:40:53;;;;;;;3.80;3.50;;;12.70;87.80;;;;;;4998719;28;20434;-72
2021/12/03 09:43:19;;;;;;;4.30;3.77;;;11.80;89.30;;;;;;4990877;28;20439;-71
2021/12/03 09:45:57;;;;;;;3.60;3.40;;;11.70;91.40;;;;;;4999334;28;20215;-70
2021/12/03 09:51:07;;;;;;;3.77;3.37;;;12.80;87.10;;;;;;4986802;28;20588;-71
2021/12/03 09:56:17;;;;;;;4.30;3.07;;;12.30;88.80;;;;;;4992781;28;20699;-71
2021/12/03 09:59:27;;;;;;;4.50;4.10;;;13.00;86.50;;;;;;5002684;28;20465;-71
2021/12/03 10:01:47;;;;;;;4.20;3.90;;;13.00;85.70;;;;;;4995494;28;20182;-71
2021/12/03 10:12:32;;;;;;;6.50;4.50;;;11.20;90.60;;;;;;4998978;28;20818;-71
2021/12/03 10:15:15;;;;;;;3.80;2.87;;;11.30;89.40;;;;;;4980220;28;20842;-71
2021/12/03 10:28:25;;;;;;;11.40;4.40;;;12.60;88.30;;;;;;5002646;28;20450;-71
2021/12/03 10:39:24;;;;;;;3.33;3.10;;;14.30;83.50;;;;;;4993041;28;20477;-69
2021/12/03 10:47:24;;;;;;;6.27;4.53;;;13.70;82.40;;;;;;4991254;28;20492;-72
2021/12/03 10:50:12;;;;;;;4.13;3.40;;;15.40;79.00;;;;;;4992298;28;20952;-71
2021/12/03 10:56:09;;;;;;;4.23;3.93;;;13.00;80.40;;;;;;4999531;28;20854;-71
2021/12/03 11:06:51;;;;;;;4.67;4.27;;;12.30;82.80;;;;;;4995229;28;20458;-71
2021/12/03 11:18:23;;;;;;;4.93;4.40;;;10.00;91.90;;;;;;4989945;28;20465;-73
2021/12/03 11:29:28;;;;;;;5.03;4.60;;;12.20;85.30;;;;;;4978993;28;20449;-67
2021/12/03 11:46:25;;;;;;;5.23;4.70;;;7.60;97.70;;;;;;4989225;28;20465;-68
2021/12/03 12:29:57;;;;;;;5.67;2.80;;;10.30;93.50;;;;;;4994287;28;20461;-69
2021/12/03 12:35:14;;;;;;;4.00;3.73;;;12.00;90.80;;;;;;4991264;28;20996;-67
2021/12/03 13:10:49;;;;;;;3.60;3.30;;;10.80;93.10;;;;;;4995460;28;20437;-68
2021/12/03 13:31:19;;;;;;;5.00;4.07;;;9.20;92.90;;;;;;4992979;28;20449;-68
2021/12/03 14:38:40;;;;;;;10.30;6.30;;;3.90;99.90;;;;;;4955348;28;20461;-68
2021/12/03 14:44:21;;;;;;;4.13;2.30;;;3.90;99.90;;;;;;4995831;28;20426;-68
2021/12/03 14:55:36;;;;;;;3.17;2.87;;;3.80;99.90;;;;;;4991762;28;20960;-68
2021/12/03 14:58:07;;;;;;;4.40;2.60;;;3.80;99.90;;;;;;5007732;28;20469;-68
2021/12/03 15:08:57;;;;;;;2.90;2.70;;;3.60;99.90;;;;;;4997981;28;20950;-68
2021/12/03 15:22:13;;;;;;;5.13;3.10;;;3.50;99.90;;;;;;4993474;28;20504;-68
2021/12/03 15:27:30;;;;;;;7.47;3.53;;;3.40;99.90;;;;;;5000583;28;20474;-68
2021/12/03 15:33:21;;;;;;;4.00;2.60;;;3.20;99.90;;;;;;5001292;28;20449;-68
2021/12/03 15:35:30;;;;;;;11.20;5.73;;;3.20;99.90;;;;;;4988221;28;20924;-67
2021/12/03 15:52:36;;;;;;;7.17;4.20;;;3.10;99.90;;;;;;4990378;28;20501;-68
2021/12/03 16:10:32;;;;;;;4.57;3.13;;;2.70;99.90;;;;;;4996846;28;20446;-69
2021/12/03 16:51:06;;;;;;;4.30;3.40;;;2.20;99.90;;;;;;4997151;28;20963;-68
2021/12/03 16:53:32;;;;;;;6.50;3.77;;;2.20;99.90;;;;;;4976957;28;20521;-70
2021/12/03 16:56:17;;;;;;;4.47;4.07;;;2.10;99.90;;;;;;4994221;28;20453;-69
2021/12/03 16:58:44;;;;;;;8.83;6.40;;;2.10;99.90;;;;;;4993802;28;20583;-70
2021/12/03 17:01:20;;;;;;;5.80;5.00;;;2.10;99.90;;;;;;4994934;28;21041;-69
2021/12/03 17:03:52;;;;;;;6.20;4.23;;;2.20;99.90;;;;;;5007342;28;20521;-68
2021/12/03 17:20:13;;;;;;;5.73;3.63;;;2.30;99.90;;;;;;5007507;28;20821;-69
2021/12/03 17:23:02;;;;;;;4.37;4.00;;;2.20;99.90;;;;;;5000491;28;20445;-71
2021/12/03 17:54:21;;;;;;;4.27;3.87;;;2.00;99.90;;;;;;4992508;28;20450;-69
2021/12/03 17:56:48;;;;;;;4.03;3.43;;;2.00;99.90;;;;;;4988209;28;20761;-70
2021/12/03 17:59:18;;;;;;;3.60;3.00;;;2.00;99.90;;;;;;5005688;28;20461;-66
2021/12/03 18:02:02;;;;;;;6.07;3.73;;;2.00;99.90;;;;;;4992305;28;20777;-65
2021/12/03 18:07:05;;;;;;;3.40;3.07;;;2.00;99.90;;;;;;4985488;28;20454;-65
2021/12/03 18:55:36;;;;;;;5.53;4.10;;;2.10;99.90;;;;;;4998057;28;20787;-64
2021/12/03 18:58:04;;;;;;;10.13;6.90;;;2.20;99.90;;;;;;4991233;28;20924;-64
2021/12/03 19:00:38;;;;;;;6.83;4.67;;;2.20;99.90;;;;;;4983606;28;20445;-64
2021/12/03 19:03:12;;;;;;;6.80;5.30;;;2.20;99.90;;;;;;4993702;28;20438;-65
2021/12/03 19:05:53;;;;;;;6.33;5.70;;;2.20;99.90;;;;;;4995549;28;20560;-64
2021/12/03 19:09:04;;;;;;;7.13;4.97;;;2.20;99.90;;;;;;4998715;28;20434;-65
2021/12/03 19:11:18;;;;;;;6.03;3.83;;;2.30;99.90;;;;;;4989530;28;20485;-65
2021/12/03 19:13:44;;;;;;;4.70;3.60;;;2.30;99.90;;;;;;5000975;28;20449;-64
2021/12/03 19:16:11;;;;;;;5.67;4.83;;;2.30;99.90;;;;;;5001648;28;20900;-64
2021/12/03 19:18:43;;;;;;;4.97;4.47;;;2.30;99.90;;;;;;4989829;28;20204;-65
2021/12/03 19:21:12;;;;;;;4.63;3.43;;;2.30;99.90;;;;;;5007415;28;20528;-64
2021/12/03 19:23:38;;;;;;;4.90;4.30;;;2.30;99.90;;;;;;4996201;28;20868;-65
2021/12/03 19:26:03;;;;;;;8.40;5.13;;;2.30;99.90;;;;;;4997417;28;20514;-66
2021/12/03 19:28:31;;;;;;;5.63;4.87;;;2.30;99.90;;;;;;4987060;28;20187;-64
2021/12/03 19:30:57;;;;;;;5.70;4.63;;;2.40;99.90;;;;;;5007465;28;20618;-64
2021/12/03 19:33:24;;;;;;;10.10;5.40;;;2.40;99.90;;;;;;4997295;28;20441;-64
2021/12/03 19:35:50;;;;;;;5.00;4.50;;;2.40;99.90;;;;;;5003032;28;20203;-65
2021/12/03 19:38:17;;;;;;;5.40;4.90;;;2.40;99.90;;;;;;4994751;28;20463;-64
2021/12/03 19:40:53;;;;;;;5.73;4.80;;;2.50;99.90;;;;;;5001058;28;20172;-64
2021/12/03 19:43:25;;;;;;;4.80;4.40;;;2.50;99.90;;;;;;4980064;28;20430;-64
2021/12/03 19:45:58;;;;;;;5.07;4.53;;;2.50;99.90;;;;;;4992219;28;20996;-65
2021/12/03 19:48:32;;;;;;;4.90;4.50;;;2.50;99.90;;;;;;4993789;28;20489;-64
2021/12/03 19:50:58;;;;;;;6.80;4.50;;;2.40;99.90;;;;;;4993613;28;20438;-64
2021/12/03 19:53:28;;;;;;;6.10;4.90;;;2.50;99.90;;;;;;5008895;28;20440;-64
2021/12/03 19:55:55;;;;;;;5.83;5.33;;;2.50;99.90;;;;;;4986444;28;20443;-65
2021/12/03 19:58:20;;;;;;;5.33;4.67;;;2.50;99.90;;;;;;5004045;28;20454;-64
2021/12/03 20:00:47;;;;;;;8.00;4.53;;;2.50;99.90;;;;;;4992491;28;20422;-65
2021/12/03 20:03:14;;;;;;;5.33;4.90;;;2.50;99.90;;;;;;4992433;28;20708;-65
2021/12/03 20:05:40;;;;;;;5.23;4.37;;;2.50;99.90;;;;;;5001964;28;20519;-64
2021/12/03 20:08:08;;;;;;;7.10;4.83;;;2.50;99.90;;;;;;5000919;28;20437;-64
2021/12/03 20:10:39;;;;;;;9.17;4.20;;;2.50;99.90;;;;;;5006617;28;20434;-64
2021/12/03 20:13:07;;;;;;;5.20;4.27;;;2.50;99.90;;;;;;4993540;28;20438;-65
2021/12/03 20:20:43;;;;;;;7.03;4.67;;;2.50;99.90;;;;;;4983939;28;20421;-64